createdAt,value
2023-01-27T00:01:33.217Z,5.42
2023-01-27T00:03:34.818Z,5.27
2023-01-27T00:05:36.535Z,5.39
2023-01-27T00:07:38.704Z,5.46
2023-01-27T00:09:40.509Z,5.36
2023-01-27T00:11:42.035Z,5.31
2023-01-27T00:13:45.067Z,5.33
2023-01-27T00:15:46.883Z,5.21
2023-01-27T00:17:48.661Z,5.30
2023-01-27T00:19:50.174Z,5.34
2023-01-27T00:21:51.700Z,5.34
2023-01-27T00:23:53.445Z,5.38
2023-01-27T00:25:55.467Z,5.42
2023-01-27T00:27:56.986Z,5.29
2023-01-27T00:30:00.071Z,5.30
2023-01-27T00:32:02.000Z,5.18
2023-01-27T00:34:05.057Z,5.08
2023-01-27T00:36:07.707Z,5.14
2023-01-27T00:38:09.433Z,5.20
2023-01-27T00:40:12.679Z,5.17
2023-01-27T00:42:14.487Z,5.18
2023-01-27T00:44:16.087Z,5.19
2023-01-27T00:46:20.422Z,5.12
2023-01-27T00:48:22.020Z,4.97
2023-01-27T00:50:23.619Z,5.05
2023-01-27T00:52:25.409Z,5.09
2023-01-27T00:54:26.959Z,5.17
2023-01-27T00:56:28.908Z,5.24
2023-01-27T00:58:30.713Z,5.31
2023-01-27T01:00:32.201Z,5.38
2023-01-27T01:02:35.580Z,5.38
2023-01-27T01:04:37.231Z,5.41
2023-01-27T01:06:38.787Z,5.40
2023-01-27T01:08:40.978Z,5.41
2023-01-27T01:10:44.454Z,5.46
2023-01-27T01:12:46.025Z,5.50
2023-01-27T01:14:47.594Z,5.58
2023-01-27T01:16:49.125Z,5.60
2023-01-27T01:18:52.386Z,5.54
2023-01-27T01:20:54.035Z,5.43
2023-01-27T01:22:55.566Z,5.47
2023-01-27T01:24:57.124Z,5.50
2023-01-27T01:26:58.627Z,5.51
2023-01-27T01:29:00.307Z,5.61
2023-01-27T01:31:06.968Z,5.54
2023-01-27T01:33:08.558Z,5.61
2023-01-27T01:35:11.483Z,5.66
2023-01-27T01:37:12.997Z,5.68
2023-01-27T01:39:14.556Z,5.62
2023-01-27T01:41:19.602Z,5.68
2023-01-27T01:43:21.163Z,5.76
2023-01-27T01:45:44.989Z,5.74
2023-01-27T01:47:46.641Z,5.72
2023-01-27T01:49:48.243Z,5.70
2023-01-27T01:51:54.945Z,5.76
2023-01-27T01:54:01.797Z,5.85
2023-01-27T01:56:09.215Z,5.90
2023-01-27T01:58:12.700Z,5.87
2023-01-27T02:00:15.477Z,5.89
2023-01-27T02:02:22.237Z,5.89
2023-01-27T02:04:27.754Z,5.86
2023-01-27T02:06:29.528Z,5.90
2023-01-27T02:08:37.865Z,5.87
2023-01-27T02:10:39.460Z,5.85
2023-01-27T02:12:41.101Z,5.84
2023-01-27T02:14:42.802Z,5.85
2023-01-27T02:16:44.935Z,5.83
2023-01-27T02:18:47.089Z,5.85
2023-01-27T02:20:58.184Z,5.88
2023-01-27T02:23:11.485Z,5.86
2023-01-27T02:25:20.437Z,5.86
2023-01-27T02:27:23.267Z,5.84
2023-01-27T02:29:24.915Z,5.87
2023-01-27T02:31:26.952Z,5.84
2023-01-27T02:33:28.546Z,5.86
2023-01-27T02:35:35.675Z,5.91
2023-01-27T02:37:38.271Z,5.94
2023-01-27T02:39:43.222Z,6.04
2023-01-27T02:41:48.779Z,6.04
2023-01-27T02:43:52.262Z,6.01
2023-01-27T02:45:53.783Z,6.02
2023-01-27T02:47:55.315Z,6.03
2023-01-27T02:49:56.838Z,6.00
2023-01-27T02:51:58.333Z,6.01
2023-01-27T02:53:59.922Z,6.04
2023-01-27T02:56:01.469Z,6.06
2023-01-27T02:58:02.994Z,6.04
2023-01-27T03:00:07.079Z,6.08
2023-01-27T03:02:08.706Z,6.06
2023-01-27T03:04:10.341Z,5.98
2023-01-27T03:06:11.900Z,5.95
2023-01-27T03:08:13.467Z,6.00
2023-01-27T03:10:15.065Z,5.94
2023-01-27T03:12:16.593Z,5.95
2023-01-27T03:14:18.097Z,5.99
2023-01-27T03:16:20.993Z,5.97
2023-01-27T03:18:22.577Z,6.02
2023-01-27T03:20:24.828Z,6.05
2023-01-27T03:22:26.334Z,6.06
2023-01-27T03:24:28.029Z,6.07
2023-01-27T03:26:29.862Z,6.05
2023-01-27T03:28:31.468Z,6.07
2023-01-27T03:30:33.041Z,6.08
2023-01-27T03:32:36.438Z,6.10
2023-01-27T03:34:38.344Z,6.08
2023-01-27T03:36:39.903Z,6.07
2023-01-27T03:38:41.445Z,6.07
2023-01-27T03:40:42.914Z,6.07
2023-01-27T03:42:44.428Z,6.09
2023-01-27T03:44:45.932Z,6.14
2023-01-27T03:46:47.438Z,6.05
2023-01-27T03:48:52.377Z,6.04
2023-01-27T03:50:57.328Z,6.08
2023-01-27T03:52:58.846Z,6.02
2023-01-27T03:55:00.341Z,6.08
2023-01-27T03:57:01.833Z,6.09
2023-01-27T03:59:03.314Z,6.12
2023-01-27T04:01:07.392Z,6.08
2023-01-27T04:03:08.970Z,6.12
2023-01-27T04:05:12.241Z,6.06
2023-01-27T04:07:13.938Z,5.99
2023-01-27T04:09:20.131Z,6.00
2023-01-27T04:11:21.812Z,5.97
2023-01-27T04:13:23.438Z,5.96
2023-01-27T04:15:25.110Z,6.00
2023-01-27T04:17:26.672Z,5.98
2023-01-27T04:19:28.750Z,5.97
2023-01-27T04:21:32.271Z,6.02
2023-01-27T04:23:33.853Z,6.04
2023-01-27T04:25:35.515Z,6.02
2023-01-27T04:27:36.983Z,6.07
2023-01-27T04:29:41.155Z,6.02
2023-01-27T04:31:43.392Z,6.07
2023-01-27T04:33:45.493Z,6.11
2023-01-27T04:35:46.992Z,6.16
2023-01-27T04:37:49.877Z,6.12
2023-01-27T04:39:51.535Z,6.06
2023-01-27T04:41:53.083Z,6.09
2023-01-27T04:43:54.742Z,6.12
2023-01-27T04:45:56.361Z,6.14
2023-01-27T04:47:57.959Z,6.10
2023-01-27T04:49:59.536Z,6.08
2023-01-27T04:52:01.113Z,6.02
2023-01-27T04:54:04.616Z,6.14
2023-01-27T04:56:17.890Z,6.15
2023-01-27T04:58:19.354Z,6.14
2023-01-27T05:00:21.011Z,6.15
2023-01-27T05:02:22.651Z,6.14
2023-01-27T05:04:24.509Z,6.14
2023-01-27T05:06:27.064Z,6.14
2023-01-27T05:08:28.676Z,6.16
2023-01-27T05:10:32.837Z,6.12
2023-01-27T05:12:34.724Z,6.09
2023-01-27T05:14:36.287Z,6.11
2023-01-27T05:16:38.793Z,6.09
2023-01-27T05:18:41.884Z,6.11
2023-01-27T05:20:43.775Z,6.14
2023-01-27T05:22:45.345Z,6.14
2023-01-27T05:24:47.031Z,6.16
2023-01-27T05:26:50.036Z,6.24
2023-01-27T05:28:52.749Z,6.18
2023-01-27T05:31:01.331Z,6.22
2023-01-27T05:33:03.231Z,6.22
2023-01-27T05:35:05.712Z,6.16
2023-01-27T05:37:07.248Z,6.18
2023-01-27T05:39:10.581Z,6.20
2023-01-27T05:41:16.576Z,6.14
2023-01-27T05:43:19.461Z,6.15
2023-01-27T05:45:20.971Z,6.14
2023-01-27T05:47:22.527Z,6.10
2023-01-27T05:49:24.091Z,6.11
2023-01-27T05:51:29.392Z,6.12
2023-01-27T05:53:31.454Z,6.09
2023-01-27T05:55:32.948Z,6.07
2023-01-27T05:57:34.471Z,6.08
2023-01-27T05:59:37.414Z,6.14
2023-01-27T06:01:39.398Z,6.17
2023-01-27T06:03:42.112Z,6.16
2023-01-27T06:05:51.505Z,6.16
2023-01-27T06:07:53.032Z,6.16
2023-01-27T06:09:54.588Z,6.18
2023-01-27T06:11:56.105Z,6.20
2023-01-27T06:13:57.878Z,6.24
2023-01-27T06:16:02.129Z,6.24
2023-01-27T06:18:03.995Z,6.28
2023-01-27T06:20:06.278Z,6.26
2023-01-27T06:22:07.813Z,6.31
2023-01-27T06:24:11.306Z,6.30
2023-01-27T06:26:18.400Z,6.32
2023-01-27T06:28:28.742Z,6.32
2023-01-27T06:30:31.791Z,6.29
2023-01-27T06:32:37.121Z,6.21
2023-01-27T06:34:38.736Z,6.14
2023-01-27T06:36:43.784Z,6.11
2023-01-27T06:38:46.023Z,6.08
2023-01-27T06:40:47.561Z,6.00
2023-01-27T06:42:49.087Z,6.02
2023-01-27T06:44:50.521Z,6.07
2023-01-27T06:46:52.154Z,6.07
2023-01-27T06:48:55.142Z,6.05
2023-01-27T06:50:57.079Z,6.10
2023-01-27T06:53:00.518Z,6.09
2023-01-27T06:55:02.045Z,6.09
2023-01-27T06:57:03.765Z,6.09
2023-01-27T06:59:05.534Z,6.11
2023-01-27T07:01:07.185Z,6.09
2023-01-27T07:03:10.593Z,6.09
2023-01-27T07:05:13.758Z,6.11
2023-01-27T07:07:15.328Z,6.12
2023-01-27T07:09:16.939Z,6.17
2023-01-27T07:11:18.484Z,6.17
2023-01-27T07:13:20.035Z,6.16
2023-01-27T07:15:21.552Z,6.19
2023-01-27T07:17:23.123Z,6.24
2023-01-27T07:19:24.690Z,6.25
2023-01-27T07:21:27.574Z,6.25
2023-01-27T07:23:29.129Z,6.24
2023-01-27T07:25:32.621Z,6.23
2023-01-27T07:27:34.220Z,6.23
2023-01-27T07:29:35.732Z,6.24
2023-01-27T07:31:37.211Z,6.19
2023-01-27T07:33:38.717Z,6.12
2023-01-27T07:35:40.230Z,6.14
2023-01-27T07:37:43.248Z,6.10
2023-01-27T07:39:44.787Z,6.12
2023-01-27T07:41:48.333Z,6.18
2023-01-27T07:43:51.512Z,6.19
2023-01-27T07:45:54.288Z,6.19
2023-01-27T07:48:00.243Z,6.23
2023-01-27T07:50:01.725Z,6.13
2023-01-27T07:52:03.355Z,6.14
2023-01-27T07:54:06.512Z,6.16
2023-01-27T07:56:08.549Z,6.16
2023-01-27T07:58:10.143Z,6.22
2023-01-27T08:00:13.303Z,6.16
2023-01-27T08:02:14.953Z,6.01
2023-01-27T08:04:16.494Z,5.72
2023-01-27T08:06:18.008Z,5.71
2023-01-27T08:08:19.521Z,5.74
2023-01-27T08:10:22.709Z,5.74
2023-01-27T08:12:24.400Z,5.73
2023-01-27T08:14:26.078Z,5.84
2023-01-27T08:16:27.892Z,5.92
2023-01-27T08:18:29.510Z,5.99
2023-01-27T08:20:31.054Z,6.08
2023-01-27T08:22:32.675Z,6.13
2023-01-27T08:24:34.891Z,6.22
2023-01-27T08:26:37.693Z,6.24
2023-01-27T08:28:40.061Z,6.26
2023-01-27T08:30:41.682Z,6.30
2023-01-27T08:32:43.256Z,6.28
2023-01-27T08:34:44.813Z,6.31
2023-01-27T08:36:46.370Z,6.22
2023-01-27T08:38:48.459Z,6.16
2023-01-27T08:40:49.992Z,6.25
2023-01-27T08:42:52.948Z,6.33
2023-01-27T08:45:00.639Z,6.40
2023-01-27T08:47:02.280Z,6.47
2023-01-27T08:49:03.812Z,6.52
2023-01-27T08:51:06.500Z,6.54
2023-01-27T08:53:08.018Z,6.56
2023-01-27T08:55:09.600Z,6.49
2023-01-27T08:57:11.099Z,6.45
2023-01-27T08:59:14.000Z,6.42
2023-01-27T09:01:16.331Z,6.43
2023-01-27T09:03:17.968Z,6.43
2023-01-27T09:05:20.282Z,6.47
2023-01-27T09:07:21.951Z,6.49
2023-01-27T09:09:23.494Z,6.51
2023-01-27T09:11:24.991Z,6.53
2023-01-27T09:13:26.793Z,6.58
2023-01-27T09:15:29.685Z,6.60
2023-01-27T09:17:31.334Z,6.64
2023-01-27T09:19:32.994Z,6.67
2023-01-27T09:21:34.542Z,6.70
2023-01-27T09:23:36.083Z,6.74
2023-01-27T09:25:37.706Z,6.79
2023-01-27T09:27:40.244Z,6.82
2023-01-27T09:29:42.013Z,6.82
2023-01-27T09:31:45.264Z,6.86
2023-01-27T09:33:46.876Z,6.83
2023-01-27T09:35:53.905Z,6.90
2023-01-27T09:37:57.916Z,6.80
2023-01-27T09:40:09.491Z,6.67
2023-01-27T09:42:41.762Z,6.64
2023-01-27T09:45:07.536Z,6.62
2023-01-27T09:47:27.597Z,6.68
2023-01-27T09:49:45.428Z,6.57
2023-01-27T09:51:58.587Z,6.45
2023-01-27T09:54:27.292Z,6.41
2023-01-27T09:56:40.304Z,6.40
2023-01-27T09:59:01.802Z,6.44
2023-01-27T10:01:13.831Z,6.31
2023-01-27T10:03:27.358Z,6.41
2023-01-27T10:05:47.342Z,6.57
2023-01-27T10:08:22.843Z,6.62
2023-01-27T10:10:39.579Z,6.53
2023-01-27T10:12:54.857Z,6.52
2023-01-27T10:15:11.762Z,6.58
2023-01-27T10:17:25.883Z,6.67
2023-01-27T10:19:47.850Z,6.72
2023-01-27T10:21:59.964Z,6.76
2023-01-27T10:24:13.861Z,6.66
2023-01-27T10:26:23.396Z,6.65
2023-01-27T10:28:29.476Z,6.60
2023-01-27T10:30:35.138Z,6.63
2023-01-27T10:32:44.227Z,6.71
2023-01-27T10:34:55.222Z,6.76
2023-01-27T10:37:20.158Z,6.80
2023-01-27T10:39:32.333Z,6.85
2023-01-27T10:41:43.850Z,6.87
2023-01-27T10:43:56.826Z,6.93
2023-01-27T10:46:07.274Z,6.93
2023-01-27T10:48:29.895Z,6.97
2023-01-27T10:50:41.642Z,7.03
2023-01-27T10:52:48.343Z,7.08
2023-01-27T10:54:55.519Z,7.06
2023-01-27T10:57:01.162Z,7.11
2023-01-27T10:59:10.909Z,7.09
2023-01-27T11:01:21.268Z,7.13
2023-01-27T11:03:28.631Z,7.16
2023-01-27T11:05:35.904Z,7.15
2023-01-27T11:07:46.475Z,7.20
2023-01-27T11:09:56.641Z,7.22
2023-01-27T11:12:03.256Z,7.21
2023-01-27T11:14:21.468Z,7.24
2023-01-27T11:16:25.160Z,7.22
2023-01-27T11:18:29.655Z,7.28
2023-01-27T11:20:38.134Z,7.31
2023-01-27T11:22:53.490Z,7.33
2023-01-27T11:25:02.317Z,7.20
2023-01-27T11:27:12.235Z,7.18
2023-01-27T11:29:22.424Z,7.19
2023-01-27T11:31:35.736Z,7.07
2023-01-27T11:33:52.557Z,7.12
2023-01-27T11:35:55.897Z,7.15
2023-01-27T11:38:09.922Z,7.19
2023-01-27T11:40:21.546Z,7.26
2023-01-27T11:42:26.184Z,7.30
2023-01-27T11:44:31.975Z,7.32
2023-01-27T11:46:34.409Z,7.35
2023-01-27T11:48:39.813Z,7.33
2023-01-27T11:50:42.936Z,7.33
2023-01-27T11:52:49.491Z,7.15
2023-01-27T11:54:56.039Z,7.01
2023-01-27T11:56:57.646Z,7.08
2023-01-27T11:59:04.580Z,6.81
2023-01-27T12:01:11.481Z,6.39
2023-01-27T12:03:19.804Z,6.42
2023-01-27T12:05:27.593Z,6.56
2023-01-27T12:07:39.502Z,6.53
2023-01-27T12:09:42.736Z,6.29
2023-01-27T12:11:44.319Z,6.18
2023-01-27T12:13:53.463Z,6.26
2023-01-27T12:15:59.061Z,6.06
2023-01-27T12:18:03.888Z,6.06
2023-01-27T12:20:07.924Z,5.85
2023-01-27T12:22:17.027Z,5.80
2023-01-27T12:24:28.028Z,5.88
2023-01-27T12:26:36.260Z,6.08
2023-01-27T12:28:42.011Z,6.10
2023-01-27T12:30:47.524Z,6.09
2023-01-27T12:32:49.514Z,6.07
2023-01-27T12:34:54.275Z,5.90
2023-01-27T12:36:56.726Z,6.06
2023-01-27T12:39:01.320Z,6.04
2023-01-27T12:41:05.691Z,6.15
2023-01-27T12:43:13.973Z,6.20
2023-01-27T12:45:22.032Z,6.10
2023-01-27T12:47:26.465Z,5.98
2023-01-27T12:49:33.263Z,6.03
2023-01-27T12:51:39.201Z,6.13
2023-01-27T12:53:40.767Z,6.12
2023-01-27T12:55:46.927Z,6.06
2023-01-27T12:57:48.463Z,6.04
2023-01-27T12:59:55.040Z,6.01
2023-01-27T13:02:02.715Z,6.16
2023-01-27T13:04:10.235Z,6.29
2023-01-27T13:06:15.748Z,6.38
2023-01-27T13:08:19.474Z,6.52
2023-01-27T13:10:23.167Z,6.59
2023-01-27T13:12:27.392Z,6.42
2023-01-27T13:14:30.615Z,6.42
2023-01-27T13:16:33.752Z,6.52
2023-01-27T13:18:37.099Z,6.67
2023-01-27T13:20:44.732Z,6.84
2023-01-27T13:22:48.937Z,6.84
2023-01-27T13:24:57.064Z,6.79
2023-01-27T13:27:02.231Z,6.90
2023-01-27T13:29:10.539Z,6.83
2023-01-27T13:31:22.108Z,6.71
2023-01-27T13:33:34.259Z,6.65
2023-01-27T13:35:43.504Z,6.55
2023-01-27T13:37:54.232Z,6.60
2023-01-27T13:40:02.333Z,6.49
2023-01-27T13:42:13.487Z,6.44
2023-01-27T13:44:24.490Z,6.54
2023-01-27T13:46:30.461Z,6.42
2023-01-27T13:48:40.579Z,6.44
2023-01-27T13:50:45.669Z,6.51
2023-01-27T13:52:51.582Z,6.46
2023-01-27T13:54:53.396Z,6.46
2023-01-27T13:57:09.801Z,6.59
2023-01-27T13:59:32.547Z,6.66
2023-01-27T14:01:47.744Z,6.70
2023-01-27T14:04:09.044Z,6.86
2023-01-27T14:06:23.249Z,6.57
2023-01-27T14:08:49.657Z,6.73
2023-01-27T14:11:07.223Z,6.85
2023-01-27T14:13:25.192Z,6.93
2023-01-27T14:15:35.149Z,7.01
2023-01-27T14:17:42.861Z,6.94
2023-01-27T14:19:53.826Z,6.77
2023-01-27T14:22:01.998Z,6.79
2023-01-27T14:24:16.729Z,6.88
2023-01-27T14:26:43.376Z,6.94
2023-01-27T14:29:00.241Z,6.99
2023-01-27T14:31:10.797Z,6.91
2023-01-27T14:33:20.987Z,7.01
2023-01-27T14:35:45.631Z,7.05
2023-01-27T14:37:55.688Z,6.92
2023-01-27T14:40:13.335Z,6.94
2023-01-27T14:42:24.442Z,6.85
2023-01-27T14:44:43.470Z,6.81
2023-01-27T14:46:58.017Z,6.98
2023-01-27T14:49:10.706Z,6.95
2023-01-27T14:51:27.620Z,7.06
2023-01-27T14:53:43.669Z,7.16
2023-01-27T14:55:51.655Z,7.12
2023-01-27T14:58:03.128Z,7.17
2023-01-27T15:00:25.834Z,7.28
2023-01-27T15:03:03.660Z,7.40
2023-01-27T15:05:16.098Z,7.49
2023-01-27T15:07:24.763Z,7.56
2023-01-27T15:09:58.991Z,7.63
2023-01-27T15:12:20.611Z,7.66
2023-01-27T15:14:45.709Z,7.74
2023-01-27T15:17:05.224Z,7.79
2023-01-27T15:19:24.435Z,7.81
2023-01-27T15:21:51.320Z,7.79
2023-01-27T15:24:30.122Z,7.86
2023-01-27T15:26:34.610Z,7.86
2023-01-27T15:28:39.937Z,7.86
2023-01-27T15:31:10.090Z,7.84
2023-01-27T15:33:48.561Z,7.91
2023-01-27T15:36:16.785Z,7.95
2023-01-27T15:38:21.490Z,7.93
2023-01-27T15:40:24.899Z,7.93
2023-01-27T15:42:49.271Z,7.95
2023-01-27T15:45:02.249Z,7.98
2023-01-27T15:47:10.099Z,7.95
2023-01-27T15:49:19.488Z,7.94
2023-01-27T15:51:21.422Z,7.87
2023-01-27T15:53:29.731Z,7.93
2023-01-27T15:55:34.570Z,7.93
2023-01-27T15:57:38.941Z,7.93
2023-01-27T15:59:57.155Z,7.93
2023-01-27T16:02:04.195Z,7.92
2023-01-27T16:04:13.230Z,7.92
2023-01-27T16:06:17.951Z,7.97
2023-01-27T16:08:20.596Z,7.98
2023-01-27T16:10:24.691Z,7.85
2023-01-27T16:12:37.854Z,7.90
2023-01-27T16:14:46.277Z,7.89
2023-01-27T16:17:02.710Z,7.92
2023-01-27T16:19:16.987Z,7.97
2023-01-27T16:21:37.360Z,7.88
2023-01-27T16:23:48.815Z,7.88
2023-01-27T16:25:59.134Z,7.83
2023-01-27T16:28:05.872Z,7.78
2023-01-27T16:30:14.970Z,7.63
2023-01-27T16:32:19.494Z,7.59
2023-01-27T16:34:24.427Z,7.50
2023-01-27T16:36:29.152Z,7.56
2023-01-27T16:38:33.019Z,7.61
2023-01-27T16:40:37.517Z,7.69
2023-01-27T16:42:46.040Z,7.72
2023-01-27T16:44:51.640Z,7.69
2023-01-27T16:46:56.879Z,7.69
2023-01-27T16:49:01.244Z,7.76
2023-01-27T16:51:17.203Z,7.77
2023-01-27T16:53:20.550Z,7.80
2023-01-27T16:55:22.326Z,7.82
2023-01-27T16:57:31.310Z,7.87
2023-01-27T16:59:36.131Z,7.92
2023-01-27T17:01:42.921Z,7.96
2023-01-27T17:03:46.655Z,8.01
2023-01-27T17:05:51.869Z,8.01
2023-01-27T17:08:14.162Z,7.98
2023-01-27T17:10:29.134Z,8.01
2023-01-27T17:12:39.678Z,8.00
2023-01-27T17:14:46.298Z,8.05
2023-01-27T17:16:49.925Z,8.04
2023-01-27T17:18:53.736Z,8.05
2023-01-27T17:20:56.584Z,8.06
2023-01-27T17:22:59.540Z,8.08
2023-01-27T17:25:03.768Z,8.09
2023-01-27T17:27:09.067Z,8.06
2023-01-27T17:29:17.113Z,8.06
2023-01-27T17:31:22.826Z,7.92
2023-01-27T17:33:25.770Z,7.88
2023-01-27T17:35:29.467Z,7.92
2023-01-27T17:37:33.389Z,7.96
2023-01-27T17:39:37.663Z,7.96
2023-01-27T17:41:39.180Z,7.97
2023-01-27T17:43:40.984Z,7.97
2023-01-27T17:45:42.592Z,7.96
2023-01-27T17:47:46.346Z,7.89
2023-01-27T17:49:51.104Z,7.87
2023-01-27T17:51:54.406Z,7.91
2023-01-27T17:53:56.563Z,7.92
2023-01-27T17:55:58.263Z,7.87
2023-01-27T17:58:04.407Z,7.88
2023-01-27T18:00:09.346Z,7.93
2023-01-27T18:02:19.473Z,7.96
2023-01-27T18:04:22.728Z,7.97
2023-01-27T18:06:28.843Z,7.95
2023-01-27T18:08:33.097Z,7.97
2023-01-27T18:10:39.512Z,8.00
2023-01-27T18:12:41.060Z,8.01
2023-01-27T18:14:42.648Z,8.03
2023-01-27T18:16:44.377Z,8.07
2023-01-27T18:18:47.034Z,8.05
2023-01-27T18:20:50.507Z,8.04
2023-01-27T18:22:53.460Z,8.04
2023-01-27T18:24:58.642Z,8.04
2023-01-27T18:27:00.239Z,8.07
2023-01-27T18:29:04.897Z,8.03
2023-01-27T18:31:14.570Z,8.05
2023-01-27T18:33:17.697Z,8.05
2023-01-27T18:35:25.142Z,8.00
2023-01-27T18:37:29.974Z,7.96
2023-01-27T18:39:37.960Z,7.97
2023-01-27T18:41:46.817Z,7.94
2023-01-27T18:43:51.322Z,7.96
2023-01-27T18:45:52.874Z,8.00
2023-01-27T18:47:55.049Z,7.94
2023-01-27T18:50:06.498Z,7.98
2023-01-27T18:52:11.126Z,7.75
2023-01-27T18:54:12.768Z,7.81
2023-01-27T18:56:15.820Z,7.84
2023-01-27T18:58:17.405Z,7.82
2023-01-27T19:00:21.472Z,7.77
2023-01-27T19:02:23.528Z,7.80
2023-01-27T19:04:25.616Z,7.80
2023-01-27T19:06:27.202Z,7.67
2023-01-27T19:08:28.738Z,7.63
2023-01-27T19:10:32.421Z,7.67
2023-01-27T19:12:35.334Z,7.70
2023-01-27T19:14:37.367Z,7.69
2023-01-27T19:16:39.325Z,7.74
2023-01-27T19:18:41.864Z,7.73
2023-01-27T19:20:43.363Z,7.79
2023-01-27T19:22:45.519Z,7.77
2023-01-27T19:24:47.534Z,7.70
2023-01-27T19:26:49.668Z,7.76
2023-01-27T19:28:54.964Z,7.80
2023-01-27T19:30:57.237Z,7.84
2023-01-27T19:32:58.844Z,7.86
2023-01-27T19:35:00.397Z,7.88
2023-01-27T19:37:02.012Z,7.93
2023-01-27T19:39:12.588Z,7.92
2023-01-27T19:41:14.189Z,7.95
2023-01-27T19:43:16.387Z,8.01
2023-01-27T19:45:20.277Z,8.01
2023-01-27T19:47:21.951Z,8.02
2023-01-27T19:49:23.635Z,8.05
2023-01-27T19:51:25.271Z,8.04
2023-01-27T19:53:26.911Z,8.05
2023-01-27T19:55:28.581Z,8.05
2023-01-27T19:57:30.092Z,8.07
2023-01-27T19:59:31.737Z,8.06
2023-01-27T20:01:35.125Z,8.05
2023-01-27T20:03:36.806Z,8.01
2023-01-27T20:05:38.410Z,7.99
2023-01-27T20:07:39.942Z,7.98
2023-01-27T20:09:41.847Z,8.07
2023-01-27T20:11:44.157Z,8.01
2023-01-27T20:13:45.680Z,8.07
2023-01-27T20:15:47.592Z,8.00
2023-01-27T20:17:50.846Z,8.04
2023-01-27T20:19:52.413Z,8.04
2023-01-27T20:21:53.920Z,8.03
2023-01-27T20:23:55.507Z,8.02
2023-01-27T20:25:57.140Z,7.93
2023-01-27T20:28:00.790Z,7.91
2023-01-27T20:30:02.400Z,7.92
2023-01-27T20:32:04.463Z,7.94
2023-01-27T20:34:22.841Z,7.98
2023-01-27T20:36:24.475Z,7.99
2023-01-27T20:38:26.193Z,8.01
2023-01-27T20:40:28.873Z,8.02
2023-01-27T20:42:30.783Z,8.05
2023-01-27T20:44:33.703Z,8.05
2023-01-27T20:46:35.527Z,8.06
2023-01-27T20:48:37.193Z,8.08
2023-01-27T20:50:40.089Z,8.00
2023-01-27T20:52:41.729Z,8.05
2023-01-27T20:54:43.309Z,8.02
2023-01-27T20:56:44.845Z,8.05
2023-01-27T20:58:47.518Z,7.95
2023-01-27T21:00:49.175Z,7.97
2023-01-27T21:02:53.085Z,8.00
2023-01-27T21:04:55.210Z,8.01
2023-01-27T21:06:58.109Z,8.01
2023-01-27T21:08:59.668Z,8.00
2023-01-27T21:11:02.622Z,7.99
2023-01-27T21:13:04.335Z,7.98
2023-01-27T21:15:06.848Z,7.98
2023-01-27T21:17:08.599Z,7.97
2023-01-27T21:19:10.563Z,7.98
2023-01-27T21:21:22.412Z,8.05
2023-01-27T21:23:26.573Z,7.98
2023-01-27T21:25:28.220Z,7.99
2023-01-27T21:27:29.911Z,7.99
2023-01-27T21:29:31.393Z,7.99
2023-01-27T21:31:33.091Z,7.99
2023-01-27T21:33:35.464Z,7.95
2023-01-27T21:35:37.038Z,7.96
2023-01-27T21:37:38.619Z,7.95
2023-01-27T21:39:41.474Z,7.95
2023-01-27T21:41:43.070Z,7.99
2023-01-27T21:43:44.625Z,7.99
2023-01-27T21:45:46.285Z,7.98
2023-01-27T21:47:47.897Z,8.00
2023-01-27T21:49:49.822Z,8.01
2023-01-27T21:51:51.332Z,8.01
2023-01-27T21:53:52.822Z,8.03
2023-01-27T21:55:55.812Z,8.01
2023-01-27T21:57:57.341Z,8.05
2023-01-27T21:59:58.925Z,7.90
2023-01-27T22:02:00.485Z,7.88
2023-01-27T22:04:03.209Z,7.74
2023-01-27T22:06:05.561Z,7.62
2023-01-27T22:08:07.191Z,7.67
2023-01-27T22:10:15.313Z,7.74
2023-01-27T22:12:18.476Z,7.62
2023-01-27T22:14:20.225Z,7.54
2023-01-27T22:16:29.731Z,7.60
2023-01-27T22:18:31.424Z,7.67
2023-01-27T22:20:33.059Z,7.60
2023-01-27T22:22:34.609Z,7.62
2023-01-27T22:24:36.141Z,7.63
2023-01-27T22:26:37.717Z,7.64
2023-01-27T22:28:40.654Z,7.50
2023-01-27T22:30:42.344Z,7.45
2023-01-27T22:32:44.792Z,7.44
2023-01-27T22:34:46.268Z,7.41
2023-01-27T22:36:47.768Z,7.45
2023-01-27T22:38:49.572Z,7.44
2023-01-27T22:40:55.739Z,7.55
2023-01-27T22:42:57.401Z,7.60
2023-01-27T22:45:00.427Z,7.59
2023-01-27T22:47:02.010Z,7.52
2023-01-27T22:49:03.607Z,7.50
2023-01-27T22:51:05.983Z,7.48
2023-01-27T22:53:07.589Z,7.44
2023-01-27T22:55:11.369Z,7.44
2023-01-27T22:57:13.002Z,7.51
2023-01-27T22:59:14.707Z,7.59
2023-01-27T23:01:17.707Z,7.65
2023-01-27T23:03:20.112Z,7.62
2023-01-27T23:05:21.776Z,7.65
2023-01-27T23:07:23.665Z,7.74
2023-01-27T23:09:25.224Z,7.78
2023-01-27T23:11:26.807Z,7.80
2023-01-27T23:13:28.704Z,7.81
2023-01-27T23:15:30.633Z,7.79
2023-01-27T23:17:33.559Z,7.80
2023-01-27T23:19:35.130Z,7.80
2023-01-27T23:21:36.755Z,7.80
2023-01-27T23:23:38.430Z,7.82
2023-01-27T23:25:42.273Z,7.84
2023-01-27T23:27:43.977Z,7.91
2023-01-27T23:29:45.589Z,7.91
2023-01-27T23:31:49.612Z,7.93
2023-01-27T23:33:55.395Z,7.96
2023-01-27T23:35:57.209Z,7.93
2023-01-27T23:37:58.785Z,7.98
2023-01-27T23:40:00.371Z,7.99
2023-01-27T23:42:01.905Z,7.94
2023-01-27T23:44:03.394Z,7.90
2023-01-27T23:46:05.237Z,7.92
2023-01-27T23:48:06.788Z,7.96
2023-01-27T23:50:11.259Z,8.00
2023-01-27T23:52:12.893Z,8.01
2023-01-27T23:54:14.445Z,7.98
2023-01-27T23:56:18.955Z,8.00
2023-01-27T23:58:20.968Z,8.04
